createdAt,value
2022-11-11T00:25:39.523Z,102400.25
2022-11-11T00:30:07.283Z,102397.66
2022-11-11T00:33:55.531Z,102397.56
2022-11-11T00:36:54.889Z,102404.66
2022-11-11T00:40:05.973Z,102399.94
2022-11-11T00:43:22.000Z,102403.41
2022-11-11T00:46:35.431Z,102403.50
2022-11-11T00:50:00.538Z,102405.66
2022-11-11T00:54:10.220Z,102416.34
2022-11-11T00:56:49.262Z,102406.94
2022-11-11T01:00:25.737Z,102424.63
2022-11-11T01:03:29.447Z,102409.50
2022-11-11T01:07:24.132Z,102417.47
2022-11-11T01:10:40.374Z,102409.19
2022-11-11T01:13:49.865Z,102402.53
2022-11-11T01:18:01.810Z,102399.50
2022-11-11T01:21:15.730Z,102401.25
2022-11-11T01:28:42.811Z,102407.81
2022-11-11T01:31:57.560Z,102406.94
2022-11-11T01:35:48.743Z,102403.94
2022-11-11T01:39:09.381Z,102411.78
2022-11-11T01:42:54.970Z,102407.56
2022-11-11T01:46:02.620Z,102423.22
2022-11-11T01:49:42.713Z,102414.63
2022-11-11T01:53:12.942Z,102425.41
2022-11-11T02:00:24.301Z,102410.84
2022-11-11T02:04:35.221Z,102420.94
2022-11-11T02:08:14.048Z,102416.00
2022-11-11T02:11:58.436Z,102425.91
2022-11-11T02:18:38.113Z,102419.00
2022-11-11T02:22:15.669Z,102413.31
2022-11-11T02:29:52.655Z,102412.91
2022-11-11T02:32:59.840Z,102418.97
2022-11-11T02:36:01.595Z,102416.16
2022-11-11T02:47:03.473Z,102418.47
2022-11-11T02:49:59.534Z,102410.47
2022-11-11T02:53:22.708Z,102423.09
2022-11-11T03:03:54.073Z,102428.38
2022-11-11T03:08:04.978Z,102415.84
2022-11-11T03:11:45.659Z,102428.38
2022-11-11T03:15:11.049Z,102432.75
2022-11-11T03:18:30.408Z,102426.91
2022-11-11T03:25:41.092Z,102435.59
2022-11-11T03:28:37.262Z,102434.81
2022-11-11T03:31:25.775Z,102432.28
2022-11-11T03:34:20.250Z,102442.31
2022-11-11T03:37:27.391Z,102450.16
2022-11-11T03:40:13.897Z,102455.59
2022-11-11T03:43:04.565Z,102451.94
2022-11-11T03:45:56.555Z,102459.63
2022-11-11T03:48:42.294Z,102451.13
2022-11-11T03:51:30.627Z,102450.31
2022-11-11T03:54:16.426Z,102452.06
2022-11-11T03:57:20.566Z,102461.91
2022-11-11T04:00:13.734Z,102461.88
2022-11-11T04:03:28.397Z,102464.00
2022-11-11T04:06:32.532Z,102461.38
2022-11-11T04:09:37.485Z,102450.34
2022-11-11T04:12:24.504Z,102451.50
2022-11-11T04:15:28.658Z,102454.53
2022-11-11T04:18:14.959Z,102452.28
2022-11-11T04:21:19.899Z,102450.53
2022-11-11T04:24:26.218Z,102459.00
2022-11-11T04:27:14.836Z,102460.81
2022-11-11T04:30:00.664Z,102458.06
2022-11-11T04:32:47.611Z,102461.88
2022-11-11T04:35:33.979Z,102467.97
2022-11-11T04:38:38.123Z,102464.91
2022-11-11T04:41:36.066Z,102474.31
2022-11-11T04:44:48.838Z,102459.75
2022-11-11T04:47:35.468Z,102462.94
2022-11-11T04:50:23.251Z,102459.19
2022-11-11T04:53:14.501Z,102459.75
2022-11-11T04:56:19.422Z,102449.09
2022-11-11T04:59:17.135Z,102459.94
2022-11-11T05:02:21.689Z,102460.25
2022-11-11T05:05:07.740Z,102459.50
2022-11-11T05:08:13.160Z,102461.41
2022-11-11T05:10:59.039Z,102463.78
2022-11-11T05:14:03.767Z,102445.41
2022-11-11T05:17:10.724Z,102454.66
2022-11-11T05:20:15.421Z,102459.09
2022-11-11T05:23:01.224Z,102460.50
2022-11-11T05:25:47.276Z,102456.41
2022-11-11T05:28:33.571Z,102470.91
2022-11-11T05:31:19.401Z,102477.25
2022-11-11T05:34:05.282Z,102466.56
2022-11-11T05:36:51.431Z,102464.94
2022-11-11T05:39:37.327Z,102462.34
2022-11-11T05:42:23.095Z,102471.84
2022-11-11T05:45:09.895Z,102475.44
2022-11-11T05:47:56.160Z,102485.22
2022-11-11T05:50:42.449Z,102484.16
2022-11-11T05:53:28.828Z,102483.09
2022-11-11T05:56:15.587Z,102490.69
2022-11-11T05:59:01.592Z,102495.16
2022-11-11T06:01:47.624Z,102494.88
2022-11-11T06:04:35.570Z,102499.53
2022-11-11T06:07:40.677Z,102495.63
2022-11-11T06:10:32.749Z,102490.50
2022-11-11T06:13:18.923Z,102500.88
2022-11-11T06:16:06.043Z,102502.28
2022-11-11T06:18:52.344Z,102508.66
2022-11-11T06:21:57.118Z,102507.69
2022-11-11T06:25:03.293Z,102505.69
2022-11-11T06:27:49.503Z,102513.25
2022-11-11T06:30:49.414Z,102522.03
2022-11-11T06:33:37.690Z,102510.75
2022-11-11T06:36:23.436Z,102504.94
2022-11-11T06:39:09.268Z,102506.88
2022-11-11T06:41:56.152Z,102506.09
2022-11-11T06:44:42.127Z,102501.69
2022-11-11T06:47:27.905Z,102507.88
2022-11-11T06:50:14.269Z,102495.84
2022-11-11T06:53:14.587Z,102502.16
2022-11-11T06:56:00.700Z,102494.09
2022-11-11T06:58:46.377Z,102503.91
2022-11-11T07:01:34.571Z,102500.38
2022-11-11T07:04:21.023Z,102500.84
2022-11-11T07:07:06.895Z,102500.06
2022-11-11T07:09:52.544Z,102503.97
2022-11-11T07:12:41.489Z,102501.47
2022-11-11T07:15:27.690Z,102497.63
2022-11-11T07:18:13.881Z,102506.69
2022-11-11T07:21:00.097Z,102505.03
2022-11-11T07:23:45.851Z,102510.78
2022-11-11T07:26:31.821Z,102510.84
2022-11-11T07:29:17.643Z,102510.22
2022-11-11T07:32:03.484Z,102517.63
2022-11-11T07:34:50.782Z,102515.66
2022-11-11T07:37:37.393Z,102525.69
2022-11-11T07:40:23.571Z,102527.97
2022-11-11T07:43:10.091Z,102533.06
2022-11-11T07:45:56.025Z,102533.34
2022-11-11T07:48:42.488Z,102533.09
2022-11-11T07:51:29.010Z,102538.09
2022-11-11T07:54:15.392Z,102549.03
2022-11-11T07:57:01.823Z,102546.38
2022-11-11T07:59:47.953Z,102545.16
2022-11-11T08:02:33.893Z,102552.91
2022-11-11T08:05:19.881Z,102555.28
2022-11-11T08:08:07.700Z,102554.44
2022-11-11T08:10:55.055Z,102547.81
2022-11-11T08:13:42.042Z,102546.41
2022-11-11T08:16:27.987Z,102536.84
2022-11-11T08:19:14.275Z,102540.13
2022-11-11T08:22:00.781Z,102546.50
2022-11-11T08:25:04.312Z,102557.03
2022-11-11T08:28:00.200Z,102560.94
2022-11-11T08:30:46.109Z,102569.44
2022-11-11T08:33:44.348Z,102571.38
2022-11-11T08:36:30.656Z,102564.72
2022-11-11T08:39:17.015Z,102574.28
2022-11-11T08:42:03.106Z,102582.28
2022-11-11T08:44:49.423Z,102583.19
2022-11-11T08:47:36.621Z,102579.56
2022-11-11T08:50:22.524Z,102590.31
2022-11-11T08:53:08.940Z,102578.97
2022-11-11T08:55:55.168Z,102590.75
2022-11-11T08:58:41.355Z,102585.22
2022-11-11T09:01:27.449Z,102587.44
2022-11-11T09:07:19.488Z,102604.56
2022-11-11T09:10:05.537Z,102606.41
2022-11-11T09:12:56.715Z,102598.34
2022-11-11T09:15:59.832Z,102597.91
2022-11-11T09:18:46.701Z,102606.75
2022-11-11T09:21:32.652Z,102603.56
2022-11-11T09:24:18.355Z,102604.00
2022-11-11T09:27:04.216Z,102612.81
2022-11-11T09:29:49.976Z,102612.44
2022-11-11T09:32:36.826Z,102625.97
2022-11-11T09:35:22.741Z,102631.97
2022-11-11T09:38:09.201Z,102641.22
2022-11-11T09:41:04.848Z,102636.22
2022-11-11T09:43:59.857Z,102630.81
2022-11-11T09:47:06.109Z,102629.38
2022-11-11T09:50:04.052Z,102645.50
2022-11-11T09:52:55.689Z,102641.53
2022-11-11T09:55:56.988Z,102636.28
2022-11-11T09:58:52.678Z,102647.31
2022-11-11T10:01:43.147Z,102643.25
2022-11-11T10:04:48.145Z,102648.16
2022-11-11T10:07:46.094Z,102640.38
2022-11-11T10:10:51.498Z,102650.19
2022-11-11T10:13:39.028Z,102643.00
2022-11-11T10:17:02.163Z,102643.72
2022-11-11T10:20:03.173Z,102637.22
2022-11-11T10:23:03.388Z,102641.53
2022-11-11T10:25:55.255Z,102639.72
2022-11-11T10:28:44.650Z,102635.03
2022-11-11T10:31:30.669Z,102629.28
2022-11-11T10:34:19.865Z,102620.47
2022-11-11T10:37:17.192Z,102629.47
2022-11-11T10:40:18.558Z,102621.53
2022-11-11T10:43:04.605Z,102627.03
2022-11-11T10:46:03.404Z,102625.25
2022-11-11T10:48:59.209Z,102622.63
2022-11-11T10:51:55.615Z,102623.50
2022-11-11T10:54:52.126Z,102621.75
2022-11-11T10:58:04.454Z,102620.88
2022-11-11T11:00:53.890Z,102620.88
2022-11-11T11:03:45.738Z,102621.72
2022-11-11T11:06:36.132Z,102613.78
2022-11-11T11:09:30.697Z,102612.88
2022-11-11T11:12:28.553Z,102614.59
2022-11-11T11:15:40.064Z,102612.75
2022-11-11T11:18:27.250Z,102603.09
2022-11-11T11:21:13.557Z,102604.88
2022-11-11T11:23:59.533Z,102595.81
2022-11-11T11:26:47.923Z,102604.84
2022-11-11T11:29:42.977Z,102603.91
2022-11-11T11:32:31.311Z,102589.72
2022-11-11T11:35:33.490Z,102586.13
2022-11-11T11:38:19.658Z,102576.53
2022-11-11T11:41:05.480Z,102572.63
2022-11-11T11:43:51.352Z,102570.72
2022-11-11T11:46:42.936Z,102568.13
2022-11-11T11:49:47.844Z,102566.16
2022-11-11T11:52:45.787Z,102561.38
2022-11-11T11:55:42.375Z,102562.06
2022-11-11T11:58:53.388Z,102548.50
2022-11-11T12:01:52.433Z,102553.94
2022-11-11T12:04:49.622Z,102552.00
2022-11-11T12:07:56.690Z,102543.31
2022-11-11T12:11:03.608Z,102538.84
2022-11-11T12:14:07.172Z,102538.78
2022-11-11T12:17:19.194Z,102543.16
2022-11-11T12:20:25.402Z,102529.03
2022-11-11T12:23:29.928Z,102530.88
2022-11-11T12:26:25.876Z,102526.25
2022-11-11T12:29:17.962Z,102531.38
2022-11-11T12:32:18.732Z,102533.34
2022-11-11T12:35:10.340Z,102541.56
2022-11-11T12:38:27.033Z,102529.03
2022-11-11T12:41:51.796Z,102530.28
2022-11-11T12:44:46.676Z,102532.72
2022-11-11T12:47:47.244Z,102534.28
2022-11-11T12:50:43.815Z,102535.81
2022-11-11T12:53:43.418Z,102529.75
2022-11-11T12:56:42.109Z,102528.81
2022-11-11T12:59:37.990Z,102536.66
2022-11-11T13:02:49.357Z,102523.06
2022-11-11T13:05:49.193Z,102524.63
2022-11-11T13:08:41.130Z,102521.06
2022-11-11T13:11:39.907Z,102532.59
2022-11-11T13:14:47.622Z,102525.41
2022-11-11T13:17:33.804Z,102527.19
2022-11-11T13:21:07.238Z,102528.97
2022-11-11T13:23:53.830Z,102529.84
2022-11-11T13:26:48.057Z,102536.09
2022-11-11T13:29:40.195Z,102533.50
2022-11-11T13:32:34.466Z,102536.28
2022-11-11T13:35:28.932Z,102525.78
2022-11-11T13:38:28.720Z,102534.44
2022-11-11T13:41:23.142Z,102525.81
2022-11-11T13:44:10.224Z,102528.41
2022-11-11T13:47:07.431Z,102518.81
2022-11-11T13:50:21.383Z,102525.88
2022-11-11T13:53:25.538Z,102527.53
2022-11-11T13:56:13.044Z,102522.16
2022-11-11T13:59:00.206Z,102517.75
2022-11-11T14:01:46.145Z,102527.53
2022-11-11T14:05:09.025Z,102524.09
2022-11-11T14:07:57.599Z,102529.34
2022-11-11T14:10:56.347Z,102521.41
2022-11-11T14:13:42.773Z,102532.91
2022-11-11T14:16:34.866Z,102534.63
2022-11-11T14:19:20.954Z,102532.91
2022-11-11T14:22:33.124Z,102532.06
2022-11-11T14:25:21.237Z,102536.59
2022-11-11T14:28:50.983Z,102537.50
2022-11-11T14:31:56.325Z,102539.28
2022-11-11T14:34:52.331Z,102534.00
2022-11-11T14:37:46.452Z,102528.66
2022-11-11T14:40:36.226Z,102528.72
2022-11-11T14:43:38.277Z,102522.47
2022-11-11T14:46:24.520Z,102526.94
2022-11-11T14:49:10.343Z,102520.75
2022-11-11T14:51:59.448Z,102519.91
2022-11-11T14:55:02.867Z,102519.03
2022-11-11T14:57:54.555Z,102515.50
2022-11-11T15:00:56.916Z,102520.84
2022-11-11T15:03:45.057Z,102519.94
2022-11-11T15:06:42.519Z,102526.16
2022-11-11T15:09:49.703Z,102519.00
2022-11-11T15:12:45.441Z,102524.31
2022-11-11T15:15:41.617Z,102518.97
2022-11-11T15:18:42.294Z,102510.97
2022-11-11T15:21:42.837Z,102511.84
2022-11-11T15:25:01.536Z,102509.13
2022-11-11T15:28:04.243Z,102514.47
2022-11-11T15:31:01.596Z,102518.78
2022-11-11T15:34:02.465Z,102516.91
2022-11-11T15:37:10.907Z,102514.22
2022-11-11T15:39:58.380Z,102503.59
2022-11-11T15:42:48.243Z,102508.84
2022-11-11T15:45:36.097Z,102516.66
2022-11-11T15:48:33.782Z,102501.53
2022-11-11T15:51:22.230Z,102505.06
2022-11-11T15:54:20.034Z,102493.56
2022-11-11T15:57:24.580Z,102512.97
2022-11-11T16:00:32.474Z,102501.38
2022-11-11T16:03:27.121Z,102501.28
2022-11-11T16:06:15.855Z,102510.94
2022-11-11T16:09:03.405Z,102503.97
2022-11-11T16:11:52.332Z,102509.25
2022-11-11T16:14:44.778Z,102502.06
2022-11-11T16:17:41.766Z,102505.56
2022-11-11T16:20:34.567Z,102505.34
2022-11-11T16:23:21.905Z,102496.56
2022-11-11T16:26:09.055Z,102500.84
2022-11-11T16:28:58.148Z,102500.69
2022-11-11T16:31:46.062Z,102501.50
2022-11-11T16:34:34.017Z,102506.03
2022-11-11T16:37:21.766Z,102504.94
2022-11-11T16:40:28.960Z,102516.19
2022-11-11T16:43:19.136Z,102510.25
2022-11-11T16:46:15.612Z,102515.56
2022-11-11T16:49:24.814Z,102517.22
2022-11-11T16:52:21.359Z,102521.59
2022-11-11T16:55:11.492Z,102522.28
2022-11-11T16:58:16.741Z,102516.66
2022-11-11T17:01:04.315Z,102522.69
2022-11-11T17:03:55.982Z,102529.75
2022-11-11T17:07:00.709Z,102529.66
2022-11-11T17:09:46.946Z,102543.75
2022-11-11T17:12:33.389Z,102543.72
2022-11-11T17:15:21.808Z,102549.56
2022-11-11T17:18:09.284Z,102535.38
2022-11-11T17:20:56.019Z,102518.94
2022-11-11T17:23:41.913Z,102519.50
2022-11-11T17:26:28.289Z,102530.34
2022-11-11T17:29:15.327Z,102527.25
2022-11-11T17:32:01.314Z,102527.00
2022-11-11T17:34:47.406Z,102525.69
2022-11-11T17:37:35.744Z,102531.38
2022-11-11T17:40:21.801Z,102533.72
2022-11-11T17:43:07.649Z,102528.72
2022-11-11T17:45:53.537Z,102521.22
2022-11-11T17:48:40.210Z,102529.84
2022-11-11T17:51:26.488Z,102523.59
2022-11-11T17:54:12.510Z,102524.28
2022-11-11T17:56:59.531Z,102541.00
2022-11-11T17:59:45.664Z,102535.16
2022-11-11T18:02:32.048Z,102542.59
2022-11-11T18:05:18.539Z,102542.31
2022-11-11T18:08:06.021Z,102537.16
2022-11-11T18:10:59.077Z,102540.81
2022-11-11T18:13:44.794Z,102538.47
2022-11-11T18:16:30.930Z,102546.44
2022-11-11T18:19:17.657Z,102538.31
2022-11-11T18:22:03.802Z,102534.84
2022-11-11T18:24:49.612Z,102542.59
2022-11-11T18:27:35.900Z,102533.31
2022-11-11T18:30:22.769Z,102531.63
2022-11-11T18:33:09.450Z,102541.50
2022-11-11T18:35:55.928Z,102535.28
2022-11-11T18:38:43.750Z,102537.84
2022-11-11T18:41:30.308Z,102538.50
2022-11-11T18:44:16.378Z,102541.22
2022-11-11T18:47:02.224Z,102538.41
2022-11-11T18:49:47.915Z,102531.94
2022-11-11T18:52:33.650Z,102546.53
2022-11-11T18:55:19.386Z,102551.94
2022-11-11T18:58:05.060Z,102562.28
2022-11-11T19:00:50.873Z,102556.50
2022-11-11T19:03:37.543Z,102554.00
2022-11-11T19:06:25.427Z,102562.22
2022-11-11T19:09:13.064Z,102552.13
2022-11-11T19:11:59.282Z,102559.41
2022-11-11T19:14:45.811Z,102551.78
2022-11-11T19:17:31.644Z,102560.84
2022-11-11T19:20:17.682Z,102564.69
2022-11-11T19:23:03.493Z,102569.59
2022-11-11T19:25:49.585Z,102572.34
2022-11-11T19:28:37.077Z,102566.84
2022-11-11T19:31:25.587Z,102570.34
2022-11-11T19:34:11.935Z,102574.25
2022-11-11T19:36:58.469Z,102575.94
2022-11-11T19:39:44.492Z,102575.00
2022-11-11T19:42:30.478Z,102585.50
2022-11-11T19:45:16.961Z,102589.13
2022-11-11T19:48:02.759Z,102588.72
2022-11-11T19:50:48.522Z,102589.47
2022-11-11T19:53:34.977Z,102585.44
2022-11-11T19:56:21.254Z,102595.91
2022-11-11T19:59:07.238Z,102601.69
2022-11-11T20:01:52.989Z,102605.56
2022-11-11T20:04:38.853Z,102602.25
2022-11-11T20:07:24.594Z,102608.97
2022-11-11T20:10:10.627Z,102602.50
2022-11-11T20:12:56.437Z,102612.19
2022-11-11T20:15:42.065Z,102612.72
2022-11-11T20:18:29.347Z,102609.25
2022-11-11T20:21:15.473Z,102613.44
2022-11-11T20:24:01.210Z,102609.91
2022-11-11T20:26:51.877Z,102602.75
2022-11-11T20:29:38.555Z,102605.38
2022-11-11T20:32:24.278Z,102606.25
2022-11-11T20:35:10.169Z,102618.44
2022-11-11T20:37:56.308Z,102611.63
2022-11-11T20:40:42.029Z,102624.72
2022-11-11T20:43:30.264Z,102630.88
2022-11-11T20:46:19.000Z,102621.63
2022-11-11T20:49:05.131Z,102620.16
2022-11-11T20:51:51.425Z,102613.28
2022-11-11T20:54:38.420Z,102615.47
2022-11-11T20:57:24.537Z,102619.72
2022-11-11T21:00:11.591Z,102618.78
2022-11-11T21:02:57.686Z,102612.94
2022-11-11T21:05:43.469Z,102608.34
2022-11-11T21:08:32.773Z,102599.28
2022-11-11T21:11:21.777Z,102589.19
2022-11-11T21:14:08.764Z,102597.56
2022-11-11T21:16:54.760Z,102587.00
2022-11-11T21:19:40.466Z,102592.22
2022-11-11T21:22:26.406Z,102581.84
2022-11-11T21:25:12.429Z,102580.38
2022-11-11T21:28:00.085Z,102581.16
2022-11-11T21:30:46.355Z,102582.19
2022-11-11T21:33:32.106Z,102577.00
2022-11-11T21:36:19.470Z,102572.16
2022-11-11T21:39:07.430Z,102576.84
2022-11-11T21:41:53.308Z,102575.44
2022-11-11T21:44:39.134Z,102579.09
2022-11-11T21:47:24.948Z,102565.97
2022-11-11T21:50:10.836Z,102560.22
2022-11-11T21:52:57.010Z,102568.34
2022-11-11T21:55:42.767Z,102569.16
2022-11-11T21:58:29.456Z,102561.78
2022-11-11T22:01:20.484Z,102556.06
2022-11-11T22:04:11.872Z,102550.91
2022-11-11T22:06:58.147Z,102553.66
2022-11-11T22:09:44.331Z,102561.97
2022-11-11T22:12:35.981Z,102556.69
2022-11-11T22:15:22.286Z,102552.22
2022-11-11T22:18:08.613Z,102550.16
2022-11-11T22:20:54.824Z,102546.72
2022-11-11T22:23:40.596Z,102548.28
2022-11-11T22:26:30.578Z,102546.75
2022-11-11T22:29:16.692Z,102542.47
2022-11-11T22:32:02.497Z,102536.31
2022-11-11T22:34:48.477Z,102535.50
2022-11-11T22:37:34.240Z,102534.31
2022-11-11T22:40:20.138Z,102542.91
2022-11-11T22:43:06.169Z,102534.22
2022-11-11T22:45:57.194Z,102534.44
2022-11-11T22:48:49.725Z,102535.72
2022-11-11T22:51:35.487Z,102532.81
2022-11-11T22:54:21.777Z,102532.50
2022-11-11T22:57:09.171Z,102530.84
2022-11-11T22:59:55.252Z,102533.97
2022-11-11T23:02:41.052Z,102530.66
2022-11-11T23:05:27.174Z,102534.25
2022-11-11T23:08:13.544Z,102528.13
2022-11-11T23:11:28.767Z,102523.66
2022-11-11T23:14:16.007Z,102524.50
2022-11-11T23:17:02.151Z,102511.09
2022-11-11T23:19:47.943Z,102519.91
2022-11-11T23:22:33.907Z,102527.78
2022-11-11T23:25:27.356Z,102527.78
2022-11-11T23:28:13.231Z,102520.47
2022-11-11T23:31:09.291Z,102528.22
2022-11-11T23:33:58.412Z,102516.59
2022-11-11T23:36:44.484Z,102516.47
2022-11-11T23:39:30.317Z,102510.69
2022-11-11T23:42:16.171Z,102490.78
2022-11-11T23:45:02.175Z,102481.31
2022-11-11T23:47:48.366Z,102483.78
2022-11-11T23:50:34.382Z,102483.34
2022-11-11T23:53:20.524Z,102486.03
2022-11-11T23:56:06.975Z,102486.41
2022-11-11T23:58:53.094Z,102486.56
